createdAt,value
2022-10-29T00:01:14.044Z,13.27
2022-10-29T00:05:17.644Z,13.38
2022-10-29T00:09:19.615Z,13.10
2022-10-29T00:13:22.002Z,13.05
2022-10-29T00:17:23.919Z,13.00
2022-10-29T00:21:26.948Z,12.95
2022-10-29T00:25:28.990Z,12.97
2022-10-29T00:29:30.767Z,12.89
2022-10-29T00:33:33.043Z,12.74
2022-10-29T00:37:35.897Z,12.69
2022-10-29T00:41:37.724Z,12.63
2022-10-29T00:45:45.054Z,12.54
2022-10-29T00:50:15.661Z,12.46
2022-10-29T00:54:18.746Z,12.40
2022-10-29T00:58:21.880Z,12.36
2022-10-29T01:02:24.529Z,12.26
2022-10-29T01:06:29.005Z,12.17
2022-10-29T01:10:44.898Z,12.10
2022-10-29T01:15:02.148Z,11.91
2022-10-29T01:19:41.693Z,11.82
2022-10-29T01:24:09.938Z,11.65
2022-10-29T01:32:35.870Z,11.66
2022-10-29T01:37:16.461Z,11.63
2022-10-29T01:41:28.119Z,11.57
2022-10-29T01:45:46.663Z,11.47
2022-10-29T01:49:53.880Z,11.44
2022-10-29T01:53:58.007Z,11.44
2022-10-29T01:57:59.867Z,11.41
2022-10-29T02:02:07.187Z,11.28
2022-10-29T02:06:27.280Z,11.29
2022-10-29T02:10:40.207Z,11.31
2022-10-29T02:14:53.934Z,11.25
2022-10-29T02:18:58.084Z,11.24
2022-10-29T02:23:00.627Z,11.20
2022-10-29T02:27:02.303Z,11.14
2022-10-29T02:31:04.599Z,11.14
2022-10-29T02:35:07.076Z,11.04
2022-10-29T02:39:09.705Z,11.00
2022-10-29T02:43:12.082Z,11.04
2022-10-29T02:47:13.903Z,11.06
2022-10-29T02:51:16.737Z,11.05
2022-10-29T02:55:18.870Z,11.16
2022-10-29T02:59:20.502Z,11.21
2022-10-29T03:03:22.493Z,11.22
2022-10-29T03:07:24.212Z,11.30
2022-10-29T03:11:26.010Z,11.32
2022-10-29T03:15:28.360Z,11.36
2022-10-29T03:19:30.420Z,11.39
2022-10-29T03:23:32.049Z,11.32
2022-10-29T03:27:40.990Z,11.25
2022-10-29T03:31:42.547Z,11.24
2022-10-29T03:35:44.458Z,11.35
2022-10-29T03:39:46.206Z,11.41
2022-10-29T03:43:48.065Z,11.43
2022-10-29T03:47:49.915Z,11.50
2022-10-29T03:51:51.876Z,11.58
2022-10-29T03:55:55.606Z,11.55
2022-10-29T03:59:57.629Z,11.44
2022-10-29T04:03:59.379Z,11.50
2022-10-29T04:08:01.276Z,11.36
2022-10-29T04:12:03.875Z,11.39
2022-10-29T04:16:06.093Z,11.41
2022-10-29T04:20:19.006Z,11.39
2022-10-29T04:28:52.273Z,11.36
2022-10-29T04:32:58.903Z,11.55
2022-10-29T04:37:01.230Z,11.48
2022-10-29T04:41:04.040Z,11.48
2022-10-29T04:45:07.740Z,11.57
2022-10-29T04:49:09.852Z,11.60
2022-10-29T04:53:12.272Z,11.62
2022-10-29T04:57:14.118Z,11.63
2022-10-29T05:01:15.921Z,11.70
2022-10-29T05:05:20.220Z,11.69
2022-10-29T05:09:21.868Z,11.67
2022-10-29T05:13:23.741Z,11.62
2022-10-29T05:17:25.655Z,11.57
2022-10-29T05:21:27.558Z,11.64
2022-10-29T05:25:30.565Z,11.61
2022-10-29T05:29:32.595Z,11.57
2022-10-29T05:33:34.285Z,11.72
2022-10-29T05:37:36.109Z,11.73
2022-10-29T05:41:37.794Z,11.78
2022-10-29T05:45:40.070Z,11.82
2022-10-29T05:49:42.273Z,11.71
2022-10-29T05:53:44.164Z,11.88
2022-10-29T05:57:45.794Z,11.97
2022-10-29T06:01:47.777Z,11.95
2022-10-29T06:05:50.612Z,11.98
2022-10-29T06:09:52.404Z,12.02
2022-10-29T06:13:57.194Z,11.97
2022-10-29T06:17:59.188Z,12.01
2022-10-29T06:22:00.927Z,12.15
2022-10-29T06:26:03.501Z,12.17
2022-10-29T06:30:06.128Z,12.20
2022-10-29T06:34:07.955Z,12.30
2022-10-29T06:38:12.410Z,12.53
2022-10-29T06:42:14.612Z,12.46
2022-10-29T06:46:16.316Z,12.68
2022-10-29T06:50:18.174Z,12.78
2022-10-29T06:54:19.985Z,12.92
2022-10-29T06:58:21.880Z,13.01
2022-10-29T07:02:24.066Z,13.18
2022-10-29T07:06:26.238Z,13.20
2022-10-29T07:10:32.667Z,13.24
2022-10-29T07:14:34.536Z,13.43
2022-10-29T07:18:36.274Z,13.55
2022-10-29T07:22:38.061Z,14.00
2022-10-29T07:26:40.072Z,14.52
2022-10-29T07:30:43.051Z,14.96
2022-10-29T07:34:44.701Z,15.25
2022-10-29T07:38:47.054Z,15.38
2022-10-29T07:42:52.580Z,15.47
2022-10-29T07:46:54.492Z,15.58
2022-10-29T07:50:59.094Z,15.86
2022-10-29T07:55:02.734Z,16.07
2022-10-29T07:59:04.469Z,16.05
2022-10-29T08:03:07.020Z,16.22
2022-10-29T08:07:08.768Z,16.18
2022-10-29T08:11:10.591Z,16.35
2022-10-29T08:15:12.307Z,16.42
2022-10-29T08:19:15.116Z,16.42
2022-10-29T08:23:16.785Z,16.51
2022-10-29T08:27:18.600Z,16.51
2022-10-29T08:31:20.420Z,16.65
2022-10-29T08:35:22.566Z,16.73
2022-10-29T08:39:24.285Z,16.79
2022-10-29T08:43:40.111Z,16.73
2022-10-29T08:48:09.089Z,16.67
2022-10-29T08:52:19.888Z,16.73
2022-10-29T08:56:28.765Z,16.75
2022-10-29T09:00:34.107Z,17.04
2022-10-29T09:04:38.382Z,17.10
2022-10-29T09:08:58.494Z,17.20
2022-10-29T09:13:22.599Z,17.11
2022-10-29T09:17:43.191Z,17.15
2022-10-29T09:22:03.042Z,17.20
2022-10-29T09:26:11.319Z,17.16
2022-10-29T09:30:17.819Z,17.29
2022-10-29T09:34:31.681Z,17.17
2022-10-29T09:38:42.230Z,17.12
2022-10-29T09:42:47.364Z,17.33
2022-10-29T09:47:33.684Z,17.50
2022-10-29T09:51:57.480Z,17.38
2022-10-29T09:55:59.241Z,17.44
2022-10-29T10:00:06.463Z,17.36
2022-10-29T10:04:27.806Z,17.28
2022-10-29T10:08:31.027Z,17.06
2022-10-29T10:12:38.737Z,16.99
2022-10-29T10:16:40.984Z,17.04
2022-10-29T10:20:45.709Z,17.18
2022-10-29T10:24:48.260Z,17.11
2022-10-29T10:29:10.959Z,17.23
2022-10-29T10:33:25.237Z,17.23
2022-10-29T10:37:33.381Z,17.12
2022-10-29T10:41:35.510Z,17.19
2022-10-29T10:45:40.174Z,16.97
2022-10-29T10:49:42.063Z,16.88
2022-10-29T10:53:44.092Z,17.03
2022-10-29T10:57:55.920Z,16.95
2022-10-29T11:02:00.661Z,16.91
2022-10-29T11:06:11.768Z,17.00
2022-10-29T11:10:17.640Z,17.11
2022-10-29T11:14:30.436Z,17.25
2022-10-29T11:18:38.010Z,17.43
2022-10-29T11:22:53.225Z,17.89
2022-10-29T11:27:04.781Z,17.75
2022-10-29T11:31:20.426Z,17.75
2022-10-29T11:35:43.390Z,17.36
2022-10-29T11:39:51.318Z,17.28
2022-10-29T11:43:53.043Z,17.22
2022-10-29T11:48:38.336Z,17.31
2022-10-29T11:52:50.067Z,17.35
2022-10-29T11:57:03.072Z,17.14
2022-10-29T12:01:16.846Z,17.28
2022-10-29T12:05:42.316Z,17.47
2022-10-29T12:10:03.444Z,17.63
2022-10-29T12:14:37.647Z,17.92
2022-10-29T12:19:17.991Z,18.14
2022-10-29T12:23:54.459Z,18.14
2022-10-29T12:28:18.979Z,18.08
2022-10-29T12:32:50.912Z,17.85
2022-10-29T12:37:15.271Z,17.72
2022-10-29T12:41:35.912Z,17.67
2022-10-29T12:46:21.680Z,17.63
2022-10-29T12:50:39.740Z,17.82
2022-10-29T12:54:44.859Z,17.89
2022-10-29T12:58:52.829Z,17.98
2022-10-29T13:02:56.179Z,17.95
2022-10-29T13:06:58.228Z,17.84
2022-10-29T13:11:00.329Z,17.91
2022-10-29T13:15:08.747Z,17.78
2022-10-29T13:19:19.354Z,17.83
2022-10-29T13:23:21.995Z,17.88
2022-10-29T13:27:23.608Z,17.93
2022-10-29T13:31:25.419Z,17.94
2022-10-29T13:35:27.503Z,17.93
2022-10-29T13:39:29.300Z,17.72
2022-10-29T13:43:32.693Z,17.59
2022-10-29T13:47:35.765Z,17.41
2022-10-29T13:52:00.562Z,17.20
2022-10-29T13:56:02.914Z,17.18
2022-10-29T14:00:08.239Z,17.10
2022-10-29T14:04:25.394Z,17.15
2022-10-29T14:08:50.744Z,17.05
2022-10-29T14:13:00.828Z,16.90
2022-10-29T14:17:14.082Z,17.01
2022-10-29T14:21:29.338Z,16.88
2022-10-29T14:25:36.261Z,16.79
2022-10-29T14:29:39.434Z,16.68
2022-10-29T14:33:43.471Z,16.54
2022-10-29T14:37:48.616Z,16.53
2022-10-29T14:41:50.792Z,16.31
2022-10-29T14:45:55.757Z,16.30
2022-10-29T14:49:58.798Z,16.17
2022-10-29T14:54:02.651Z,16.08
2022-10-29T14:58:11.481Z,16.01
2022-10-29T15:06:35.820Z,15.94
2022-10-29T15:10:52.497Z,15.75
2022-10-29T15:14:54.645Z,15.68
2022-10-29T15:18:58.685Z,15.51
2022-10-29T15:23:01.254Z,15.50
2022-10-29T15:27:04.678Z,15.46
2022-10-29T15:31:07.165Z,15.43
2022-10-29T15:35:10.491Z,15.32
2022-10-29T15:39:21.571Z,15.36
2022-10-29T15:43:29.558Z,15.32
2022-10-29T15:47:31.291Z,15.13
2022-10-29T15:51:33.302Z,15.24
2022-10-29T15:55:37.652Z,15.24
2022-10-29T15:59:40.175Z,15.27
2022-10-29T16:03:43.077Z,15.24
2022-10-29T16:07:47.900Z,15.24
2022-10-29T16:11:50.800Z,15.23
2022-10-29T16:15:52.869Z,15.18
2022-10-29T16:19:54.515Z,15.17
2022-10-29T16:23:56.308Z,14.99
2022-10-29T16:27:58.533Z,15.07
2022-10-29T16:32:00.719Z,15.06
2022-10-29T16:36:02.444Z,15.14
2022-10-29T16:40:04.965Z,15.05
2022-10-29T16:44:06.720Z,14.98
2022-10-29T16:48:08.949Z,14.86
2022-10-29T16:52:10.849Z,14.83
2022-10-29T16:56:12.601Z,14.80
2022-10-29T17:00:14.885Z,14.89
2022-10-29T17:04:16.973Z,14.84
2022-10-29T17:08:19.043Z,14.94
2022-10-29T17:12:20.822Z,14.81
2022-10-29T17:16:22.728Z,14.76
2022-10-29T17:20:24.594Z,14.75
2022-10-29T17:24:27.195Z,14.90
2022-10-29T17:28:29.202Z,14.96
2022-10-29T17:32:32.708Z,14.91
2022-10-29T17:36:36.926Z,15.00
2022-10-29T17:40:39.021Z,14.96
2022-10-29T17:44:40.791Z,14.96
2022-10-29T17:48:42.533Z,14.98
2022-10-29T17:52:44.858Z,15.03
2022-10-29T17:56:47.200Z,14.97
2022-10-29T18:00:49.113Z,14.85
2022-10-29T18:04:51.089Z,14.81
2022-10-29T18:08:53.049Z,14.71
2022-10-29T18:12:54.738Z,14.64
2022-10-29T18:16:56.585Z,14.65
2022-10-29T18:20:58.260Z,14.71
2022-10-29T18:25:00.057Z,14.69
2022-10-29T18:29:06.160Z,14.51
2022-10-29T18:33:08.320Z,14.70
2022-10-29T18:37:10.253Z,14.60
2022-10-29T18:41:12.315Z,14.42
2022-10-29T18:45:14.066Z,14.27
2022-10-29T18:49:16.172Z,14.05
2022-10-29T18:53:18.314Z,14.05
2022-10-29T18:57:20.165Z,13.99
2022-10-29T19:01:25.849Z,13.82
2022-10-29T19:05:28.135Z,13.76
2022-10-29T19:09:30.185Z,13.77
2022-10-29T19:13:32.442Z,13.67
2022-10-29T19:17:34.248Z,13.62
2022-10-29T19:21:37.810Z,13.65
2022-10-29T19:25:41.037Z,13.67
2022-10-29T19:29:43.018Z,13.60
2022-10-29T19:33:49.650Z,13.64
2022-10-29T19:37:51.489Z,13.70
2022-10-29T19:41:53.247Z,13.72
2022-10-29T19:45:55.617Z,13.54
2022-10-29T19:49:57.319Z,13.57
2022-10-29T19:54:01.933Z,13.45
2022-10-29T19:58:03.808Z,13.49
2022-10-29T20:02:05.689Z,13.52
2022-10-29T20:06:09.338Z,13.48
2022-10-29T20:10:11.226Z,13.34
2022-10-29T20:14:12.945Z,13.17
2022-10-29T20:18:14.965Z,13.08
2022-10-29T20:22:16.664Z,12.91
2022-10-29T20:26:18.581Z,12.93
2022-10-29T20:30:20.919Z,12.89
2022-10-29T20:34:22.803Z,12.85
2022-10-29T20:38:24.480Z,12.75
2022-10-29T20:42:26.524Z,12.70
2022-10-29T20:46:28.883Z,12.57
2022-10-29T20:50:30.714Z,12.64
2022-10-29T20:54:32.567Z,12.65
2022-10-29T20:58:36.669Z,12.49
2022-10-29T21:02:38.412Z,12.62
2022-10-29T21:06:40.591Z,12.45
2022-10-29T21:10:42.288Z,12.33
2022-10-29T21:14:44.048Z,12.36
2022-10-29T21:18:48.177Z,12.42
2022-10-29T21:22:50.516Z,12.39
2022-10-29T21:26:52.208Z,12.36
2022-10-29T21:30:54.226Z,12.31
2022-10-29T21:34:55.885Z,12.27
2022-10-29T21:38:57.724Z,12.17
2022-10-29T21:43:00.002Z,12.21
2022-10-29T21:47:02.101Z,12.16
2022-10-29T21:51:10.706Z,12.05
2022-10-29T21:55:12.717Z,11.86
2022-10-29T21:59:14.382Z,11.79
2022-10-29T22:03:16.185Z,11.75
2022-10-29T22:07:18.082Z,11.54
2022-10-29T22:11:19.929Z,11.55
2022-10-29T22:15:21.569Z,11.39
2022-10-29T22:19:23.741Z,11.38
2022-10-29T22:23:25.561Z,11.18
2022-10-29T22:27:27.383Z,11.10
2022-10-29T22:31:29.129Z,11.28
2022-10-29T22:35:32.363Z,11.36
2022-10-29T22:39:34.068Z,11.66
2022-10-29T22:43:36.321Z,11.83
2022-10-29T22:47:38.007Z,11.90
2022-10-29T22:51:40.075Z,11.95
2022-10-29T22:55:41.799Z,11.79
2022-10-29T22:59:43.941Z,11.79
2022-10-29T23:03:46.525Z,11.72
2022-10-29T23:07:48.541Z,11.76
2022-10-29T23:11:50.187Z,11.59
2022-10-29T23:15:53.182Z,11.47
2022-10-29T23:19:56.268Z,11.50
2022-10-29T23:23:58.215Z,11.44
2022-10-29T23:28:00.073Z,11.23
2022-10-29T23:32:02.025Z,11.12
2022-10-29T23:36:05.644Z,11.08
2022-10-29T23:40:08.451Z,10.91
2022-10-29T23:44:10.316Z,11.19
2022-10-29T23:48:12.249Z,11.25
2022-10-29T23:52:15.311Z,11.30
2022-10-29T23:56:17.344Z,11.47
